sensor_id;sensor_type;location;lat;lon;timestamp;P1;durP1;ratioP1;P2;durP2;ratioP2
84864;SDS011;75122;41.650;25.368;2024-03-08T00:00:13;19.67;;;9.60;;
84864;SDS011;75122;41.650;25.368;2024-03-08T00:02:40;20.13;;;10.48;;
84864;SDS011;75122;41.650;25.368;2024-03-08T00:05:07;19.88;;;10.85;;
84864;SDS011;75122;41.650;25.368;2024-03-08T00:07:37;21.33;;;10.30;;
84864;SDS011;75122;41.650;25.368;2024-03-08T00:10:06;16.00;;;8.80;;
84864;SDS011;75122;41.650;25.368;2024-03-08T00:12:36;21.73;;;10.43;;
84864;SDS011;75122;41.650;25.368;2024-03-08T00:15:11;21.13;;;10.60;;
84864;SDS011;75122;41.650;25.368;2024-03-08T00:17:39;24.95;;;11.95;;
84864;SDS011;75122;41.650;25.368;2024-03-08T00:20:07;21.67;;;11.18;;
84864;SDS011;75122;41.650;25.368;2024-03-08T00:22:36;21.27;;;10.20;;
84864;SDS011;75122;41.650;25.368;2024-03-08T00:25:03;22.52;;;10.85;;
84864;SDS011;75122;41.650;25.368;2024-03-08T00:27:29;22.60;;;10.57;;
84864;SDS011;75122;41.650;25.368;2024-03-08T00:29:58;19.95;;;10.68;;
84864;SDS011;75122;41.650;25.368;2024-03-08T00:32:24;22.13;;;10.90;;
84864;SDS011;75122;41.650;25.368;2024-03-08T00:34:50;25.20;;;12.13;;
84864;SDS011;75122;41.650;25.368;2024-03-08T00:37:17;25.77;;;13.02;;
84864;SDS011;75122;41.650;25.368;2024-03-08T00:39:42;24.83;;;11.48;;
84864;SDS011;75122;41.650;25.368;2024-03-08T00:42:08;28.30;;;13.40;;
84864;SDS011;75122;41.650;25.368;2024-03-08T00:44:34;24.13;;;12.57;;
84864;SDS011;75122;41.650;25.368;2024-03-08T00:46:59;30.88;;;13.68;;
84864;SDS011;75122;41.650;25.368;2024-03-08T00:49:24;22.20;;;11.10;;
84864;SDS011;75122;41.650;25.368;2024-03-08T00:51:50;28.17;;;12.52;;
84864;SDS011;75122;41.650;25.368;2024-03-08T00:54:15;29.45;;;13.90;;
84864;SDS011;75122;41.650;25.368;2024-03-08T00:56:41;27.83;;;14.40;;
84864;SDS011;75122;41.650;25.368;2024-03-08T00:59:07;28.38;;;14.60;;
84864;SDS011;75122;41.650;25.368;2024-03-08T01:01:33;30.13;;;15.40;;
84864;SDS011;75122;41.650;25.368;2024-03-08T01:03:58;30.20;;;13.75;;
84864;SDS011;75122;41.650;25.368;2024-03-08T01:06:24;33.65;;;16.02;;
84864;SDS011;75122;41.650;25.368;2024-03-08T01:08:49;35.08;;;14.80;;
84864;SDS011;75122;41.650;25.368;2024-03-08T01:11:17;30.92;;;15.50;;
84864;SDS011;75122;41.650;25.368;2024-03-08T01:13:43;38.05;;;16.35;;
84864;SDS011;75122;41.650;25.368;2024-03-08T01:16:08;37.70;;;16.20;;
84864;SDS011;75122;41.650;25.368;2024-03-08T01:18:34;30.25;;;13.48;;
84864;SDS011;75122;41.650;25.368;2024-03-08T01:21:00;33.28;;;15.70;;
84864;SDS011;75122;41.650;25.368;2024-03-08T01:23:25;29.42;;;13.75;;
84864;SDS011;75122;41.650;25.368;2024-03-08T01:25:51;34.65;;;14.82;;
84864;SDS011;75122;41.650;25.368;2024-03-08T01:28:22;31.73;;;13.07;;
84864;SDS011;75122;41.650;25.368;2024-03-08T01:30:51;29.60;;;14.23;;
84864;SDS011;75122;41.650;25.368;2024-03-08T01:33:29;33.30;;;15.10;;
84864;SDS011;75122;41.650;25.368;2024-03-08T01:35:56;28.83;;;12.68;;
84864;SDS011;75122;41.650;25.368;2024-03-08T01:38:23;20.95;;;10.35;;
84864;SDS011;75122;41.650;25.368;2024-03-08T01:40:49;30.65;;;14.10;;
84864;SDS011;75122;41.650;25.368;2024-03-08T01:43:22;26.65;;;13.05;;
84864;SDS011;75122;41.650;25.368;2024-03-08T01:45:51;34.05;;;13.68;;
84864;SDS011;75122;41.650;25.368;2024-03-08T01:48:18;31.00;;;12.55;;
84864;SDS011;75122;41.650;25.368;2024-03-08T01:50:44;29.58;;;15.30;;
84864;SDS011;75122;41.650;25.368;2024-03-08T01:53:10;28.98;;;14.25;;
84864;SDS011;75122;41.650;25.368;2024-03-08T01:55:40;25.15;;;13.48;;
84864;SDS011;75122;41.650;25.368;2024-03-08T01:58:07;26.05;;;12.10;;
84864;SDS011;75122;41.650;25.368;2024-03-08T02:00:35;20.13;;;10.25;;
84864;SDS011;75122;41.650;25.368;2024-03-08T02:03:01;26.50;;;13.43;;
84864;SDS011;75122;41.650;25.368;2024-03-08T02:05:27;28.30;;;12.60;;
84864;SDS011;75122;41.650;25.368;2024-03-08T02:07:53;30.60;;;15.07;;
84864;SDS011;75122;41.650;25.368;2024-03-08T02:10:19;23.00;;;12.25;;
84864;SDS011;75122;41.650;25.368;2024-03-08T02:12:46;32.13;;;15.05;;
84864;SDS011;75122;41.650;25.368;2024-03-08T02:15:12;32.33;;;15.30;;
84864;SDS011;75122;41.650;25.368;2024-03-08T02:17:37;33.80;;;14.60;;
84864;SDS011;75122;41.650;25.368;2024-03-08T02:20:03;31.45;;;15.05;;
84864;SDS011;75122;41.650;25.368;2024-03-08T02:22:29;30.20;;;13.77;;
84864;SDS011;75122;41.650;25.368;2024-03-08T02:24:55;30.88;;;14.48;;
84864;SDS011;75122;41.650;25.368;2024-03-08T02:27:24;29.42;;;13.93;;
84864;SDS011;75122;41.650;25.368;2024-03-08T02:29:50;34.95;;;13.68;;
84864;SDS011;75122;41.650;25.368;2024-03-08T02:32:21;30.67;;;13.55;;
84864;SDS011;75122;41.650;25.368;2024-03-08T02:34:49;27.77;;;13.68;;
84864;SDS011;75122;41.650;25.368;2024-03-08T02:37:16;29.92;;;13.23;;
84864;SDS011;75122;41.650;25.368;2024-03-08T02:39:42;30.70;;;14.15;;
84864;SDS011;75122;41.650;25.368;2024-03-08T02:42:07;24.63;;;11.27;;
84864;SDS011;75122;41.650;25.368;2024-03-08T02:44:33;30.50;;;12.10;;
84864;SDS011;75122;41.650;25.368;2024-03-08T02:46:58;23.55;;;12.35;;
84864;SDS011;75122;41.650;25.368;2024-03-08T02:49:25;25.70;;;11.90;;
84864;SDS011;75122;41.650;25.368;2024-03-08T02:51:51;29.38;;;13.80;;
84864;SDS011;75122;41.650;25.368;2024-03-08T02:54:17;27.65;;;13.95;;
84864;SDS011;75122;41.650;25.368;2024-03-08T02:56:44;29.00;;;13.00;;
84864;SDS011;75122;41.650;25.368;2024-03-08T02:59:11;27.15;;;13.75;;
84864;SDS011;75122;41.650;25.368;2024-03-08T03:01:42;29.75;;;14.13;;
84864;SDS011;75122;41.650;25.368;2024-03-08T03:04:08;27.77;;;12.77;;
84864;SDS011;75122;41.650;25.368;2024-03-08T03:06:34;26.85;;;13.40;;
84864;SDS011;75122;41.650;25.368;2024-03-08T03:09:00;30.20;;;14.32;;
84864;SDS011;75122;41.650;25.368;2024-03-08T03:11:26;24.23;;;12.60;;
84864;SDS011;75122;41.650;25.368;2024-03-08T03:13:52;29.33;;;13.18;;
84864;SDS011;75122;41.650;25.368;2024-03-08T03:16:18;30.45;;;16.00;;
84864;SDS011;75122;41.650;25.368;2024-03-08T03:18:44;29.52;;;13.90;;
84864;SDS011;75122;41.650;25.368;2024-03-08T03:21:10;32.22;;;13.60;;
84864;SDS011;75122;41.650;25.368;2024-03-08T03:23:37;26.25;;;12.73;;
84864;SDS011;75122;41.650;25.368;2024-03-08T03:26:04;27.95;;;13.60;;
84864;SDS011;75122;41.650;25.368;2024-03-08T03:28:32;31.00;;;14.32;;
84864;SDS011;75122;41.650;25.368;2024-03-08T03:30:58;27.83;;;13.77;;
84864;SDS011;75122;41.650;25.368;2024-03-08T03:33:24;29.08;;;13.88;;
84864;SDS011;75122;41.650;25.368;2024-03-08T03:35:49;29.15;;;14.20;;
84864;SDS011;75122;41.650;25.368;2024-03-08T03:38:16;30.35;;;14.32;;
84864;SDS011;75122;41.650;25.368;2024-03-08T03:40:42;33.60;;;14.40;;
84864;SDS011;75122;41.650;25.368;2024-03-08T03:43:10;27.80;;;13.82;;
84864;SDS011;75122;41.650;25.368;2024-03-08T03:45:36;31.92;;;15.45;;
84864;SDS011;75122;41.650;25.368;2024-03-08T03:48:05;24.92;;;12.63;;
84864;SDS011;75122;41.650;25.368;2024-03-08T03:50:31;31.65;;;14.00;;
84864;SDS011;75122;41.650;25.368;2024-03-08T03:52:59;29.60;;;13.05;;
84864;SDS011;75122;41.650;25.368;2024-03-08T03:55:24;26.30;;;13.25;;
84864;SDS011;75122;41.650;25.368;2024-03-08T03:57:50;24.58;;;11.10;;
84864;SDS011;75122;41.650;25.368;2024-03-08T04:00:16;25.40;;;12.32;;
84864;SDS011;75122;41.650;25.368;2024-03-08T04:02:41;21.75;;;10.70;;
84864;SDS011;75122;41.650;25.368;2024-03-08T04:05:07;19.95;;;10.68;;
84864;SDS011;75122;41.650;25.368;2024-03-08T04:07:34;27.35;;;12.13;;
84864;SDS011;75122;41.650;25.368;2024-03-08T04:10:01;22.80;;;10.85;;
84864;SDS011;75122;41.650;25.368;2024-03-08T04:12:27;23.92;;;12.00;;
84864;SDS011;75122;41.650;25.368;2024-03-08T04:14:54;20.35;;;10.30;;
84864;SDS011;75122;41.650;25.368;2024-03-08T04:17:20;25.67;;;11.00;;
84864;SDS011;75122;41.650;25.368;2024-03-08T04:19:46;23.13;;;10.18;;
84864;SDS011;75122;41.650;25.368;2024-03-08T04:22:13;22.52;;;10.75;;
84864;SDS011;75122;41.650;25.368;2024-03-08T04:24:39;22.83;;;11.63;;
84864;SDS011;75122;41.650;25.368;2024-03-08T04:27:05;18.90;;;9.40;;
84864;SDS011;75122;41.650;25.368;2024-03-08T04:29:31;18.35;;;10.07;;
84864;SDS011;75122;41.650;25.368;2024-03-08T04:31:57;21.23;;;9.18;;
84864;SDS011;75122;41.650;25.368;2024-03-08T04:34:23;17.73;;;9.52;;
84864;SDS011;75122;41.650;25.368;2024-03-08T04:36:49;16.55;;;8.65;;
84864;SDS011;75122;41.650;25.368;2024-03-08T04:39:14;17.48;;;8.45;;
84864;SDS011;75122;41.650;25.368;2024-03-08T04:41:40;19.42;;;10.02;;
84864;SDS011;75122;41.650;25.368;2024-03-08T04:44:08;18.25;;;8.30;;
84864;SDS011;75122;41.650;25.368;2024-03-08T04:46:35;18.10;;;9.23;;
84864;SDS011;75122;41.650;25.368;2024-03-08T04:49:01;16.10;;;7.80;;
84864;SDS011;75122;41.650;25.368;2024-03-08T04:51:26;18.75;;;9.73;;
84864;SDS011;75122;41.650;25.368;2024-03-08T04:53:52;20.20;;;9.50;;
84864;SDS011;75122;41.650;25.368;2024-03-08T04:56:18;23.40;;;10.07;;
84864;SDS011;75122;41.650;25.368;2024-03-08T04:58:44;26.52;;;11.88;;
84864;SDS011;75122;41.650;25.368;2024-03-08T05:01:11;28.25;;;11.88;;
84864;SDS011;75122;41.650;25.368;2024-03-08T05:03:37;22.48;;;10.38;;
84864;SDS011;75122;41.650;25.368;2024-03-08T05:06:03;24.73;;;11.23;;
84864;SDS011;75122;41.650;25.368;2024-03-08T05:08:29;27.25;;;13.13;;
84864;SDS011;75122;41.650;25.368;2024-03-08T05:10:54;28.30;;;14.23;;
84864;SDS011;75122;41.650;25.368;2024-03-08T05:13:20;26.13;;;12.35;;
84864;SDS011;75122;41.650;25.368;2024-03-08T05:15:49;24.75;;;12.60;;
84864;SDS011;75122;41.650;25.368;2024-03-08T05:18:15;22.98;;;10.90;;
84864;SDS011;75122;41.650;25.368;2024-03-08T05:20:41;25.25;;;12.95;;
84864;SDS011;75122;41.650;25.368;2024-03-08T05:23:06;24.88;;;12.07;;
84864;SDS011;75122;41.650;25.368;2024-03-08T05:25:33;25.48;;;12.98;;
84864;SDS011;75122;41.650;25.368;2024-03-08T05:27:58;22.60;;;11.73;;
84864;SDS011;75122;41.650;25.368;2024-03-08T05:30:24;25.80;;;12.75;;
84864;SDS011;75122;41.650;25.368;2024-03-08T05:32:49;32.22;;;12.60;;
84864;SDS011;75122;41.650;25.368;2024-03-08T05:35:15;25.08;;;12.40;;
84864;SDS011;75122;41.650;25.368;2024-03-08T05:37:41;24.48;;;11.00;;
84864;SDS011;75122;41.650;25.368;2024-03-08T05:40:07;21.65;;;11.95;;
84864;SDS011;75122;41.650;25.368;2024-03-08T05:42:34;20.08;;;10.52;;
84864;SDS011;75122;41.650;25.368;2024-03-08T05:45:02;22.40;;;11.43;;
84864;SDS011;75122;41.650;25.368;2024-03-08T05:47:28;23.10;;;12.40;;
84864;SDS011;75122;41.650;25.368;2024-03-08T05:49:53;24.58;;;11.93;;
84864;SDS011;75122;41.650;25.368;2024-03-08T05:52:19;20.00;;;10.15;;
84864;SDS011;75122;41.650;25.368;2024-03-08T05:54:45;40.65;;;16.48;;
84864;SDS011;75122;41.650;25.368;2024-03-08T05:57:12;41.35;;;17.50;;
84864;SDS011;75122;41.650;25.368;2024-03-08T05:59:38;38.72;;;17.02;;
84864;SDS011;75122;41.650;25.368;2024-03-08T06:02:04;36.80;;;16.63;;
84864;SDS011;75122;41.650;25.368;2024-03-08T06:04:30;29.23;;;13.88;;
84864;SDS011;75122;41.650;25.368;2024-03-08T06:06:56;29.90;;;13.98;;
84864;SDS011;75122;41.650;25.368;2024-03-08T06:09:23;31.90;;;14.95;;
84864;SDS011;75122;41.650;25.368;2024-03-08T06:11:49;25.95;;;14.05;;
84864;SDS011;75122;41.650;25.368;2024-03-08T06:14:15;27.92;;;13.77;;
84864;SDS011;75122;41.650;25.368;2024-03-08T06:16:44;33.88;;;15.48;;
84864;SDS011;75122;41.650;25.368;2024-03-08T06:19:10;38.13;;;15.40;;
84864;SDS011;75122;41.650;25.368;2024-03-08T06:21:35;26.63;;;13.00;;
84864;SDS011;75122;41.650;25.368;2024-03-08T06:24:01;34.67;;;15.55;;
84864;SDS011;75122;41.650;25.368;2024-03-08T06:26:27;36.53;;;15.27;;
84864;SDS011;75122;41.650;25.368;2024-03-08T06:28:55;36.88;;;17.15;;
84864;SDS011;75122;41.650;25.368;2024-03-08T06:31:21;40.25;;;20.10;;
84864;SDS011;75122;41.650;25.368;2024-03-08T06:33:47;63.15;;;27.42;;
84864;SDS011;75122;41.650;25.368;2024-03-08T06:36:17;65.13;;;28.85;;
84864;SDS011;75122;41.650;25.368;2024-03-08T06:38:49;59.67;;;27.58;;
84864;SDS011;75122;41.650;25.368;2024-03-08T06:41:15;37.78;;;18.80;;
84864;SDS011;75122;41.650;25.368;2024-03-08T06:43:44;42.47;;;18.15;;
84864;SDS011;75122;41.650;25.368;2024-03-08T06:46:16;38.03;;;18.48;;
84864;SDS011;75122;41.650;25.368;2024-03-08T06:48:42;36.63;;;17.27;;
84864;SDS011;75122;41.650;25.368;2024-03-08T06:51:08;44.00;;;21.50;;
84864;SDS011;75122;41.650;25.368;2024-03-08T06:53:33;61.40;;;24.85;;
84864;SDS011;75122;41.650;25.368;2024-03-08T06:56:03;39.42;;;17.75;;
84864;SDS011;75122;41.650;25.368;2024-03-08T06:58:29;55.15;;;24.73;;
84864;SDS011;75122;41.650;25.368;2024-03-08T07:00:54;59.40;;;28.05;;
84864;SDS011;75122;41.650;25.368;2024-03-08T07:03:23;59.95;;;27.02;;
84864;SDS011;75122;41.650;25.368;2024-03-08T07:05:49;54.72;;;24.33;;
84864;SDS011;75122;41.650;25.368;2024-03-08T07:08:14;69.15;;;28.67;;
84864;SDS011;75122;41.650;25.368;2024-03-08T07:10:41;67.60;;;30.45;;
84864;SDS011;75122;41.650;25.368;2024-03-08T07:13:07;61.28;;;27.05;;
84864;SDS011;75122;41.650;25.368;2024-03-08T07:15:33;52.25;;;24.77;;
84864;SDS011;75122;41.650;25.368;2024-03-08T07:17:58;46.60;;;20.45;;
84864;SDS011;75122;41.650;25.368;2024-03-08T07:20:24;50.45;;;21.67;;
84864;SDS011;75122;41.650;25.368;2024-03-08T07:22:50;89.28;;;33.22;;
84864;SDS011;75122;41.650;25.368;2024-03-08T07:25:15;77.50;;;29.90;;
84864;SDS011;75122;41.650;25.368;2024-03-08T07:27:45;97.88;;;35.83;;
84864;SDS011;75122;41.650;25.368;2024-03-08T07:30:11;51.22;;;21.27;;
84864;SDS011;75122;41.650;25.368;2024-03-08T07:32:37;57.78;;;23.05;;
84864;SDS011;75122;41.650;25.368;2024-03-08T07:35:03;53.58;;;22.40;;
84864;SDS011;75122;41.650;25.368;2024-03-08T07:37:29;42.72;;;19.15;;
84864;SDS011;75122;41.650;25.368;2024-03-08T07:39:56;39.95;;;19.05;;
84864;SDS011;75122;41.650;25.368;2024-03-08T07:42:23;60.45;;;27.10;;
84864;SDS011;75122;41.650;25.368;2024-03-08T07:44:48;36.58;;;18.50;;
84864;SDS011;75122;41.650;25.368;2024-03-08T07:47:15;69.50;;;29.40;;
84864;SDS011;75122;41.650;25.368;2024-03-08T07:49:42;55.38;;;22.65;;
84864;SDS011;75122;41.650;25.368;2024-03-08T07:52:08;37.65;;;18.13;;
84864;SDS011;75122;41.650;25.368;2024-03-08T07:54:34;70.90;;;28.00;;
84864;SDS011;75122;41.650;25.368;2024-03-08T07:57:03;56.08;;;23.30;;
84864;SDS011;75122;41.650;25.368;2024-03-08T07:59:29;55.75;;;23.98;;
84864;SDS011;75122;41.650;25.368;2024-03-08T08:01:55;50.85;;;20.77;;
84864;SDS011;75122;41.650;25.368;2024-03-08T08:04:21;38.25;;;18.30;;
84864;SDS011;75122;41.650;25.368;2024-03-08T08:06:49;44.38;;;21.83;;
84864;SDS011;75122;41.650;25.368;2024-03-08T08:09:16;60.95;;;30.85;;
84864;SDS011;75122;41.650;25.368;2024-03-08T08:11:47;48.38;;;26.42;;
84864;SDS011;75122;41.650;25.368;2024-03-08T08:14:12;35.65;;;20.67;;
84864;SDS011;75122;41.650;25.368;2024-03-08T08:16:38;46.75;;;26.17;;
84864;SDS011;75122;41.650;25.368;2024-03-08T08:19:06;46.53;;;27.52;;
84864;SDS011;75122;41.650;25.368;2024-03-08T08:21:35;39.85;;;23.13;;
84864;SDS011;75122;41.650;25.368;2024-03-08T08:24:05;44.78;;;23.75;;
84864;SDS011;75122;41.650;25.368;2024-03-08T08:26:31;38.80;;;21.35;;
84864;SDS011;75122;41.650;25.368;2024-03-08T08:28:57;38.13;;;19.75;;
84864;SDS011;75122;41.650;25.368;2024-03-08T08:31:24;41.63;;;20.45;;
84864;SDS011;75122;41.650;25.368;2024-03-08T08:33:50;33.60;;;18.92;;
84864;SDS011;75122;41.650;25.368;2024-03-08T08:36:17;28.67;;;14.90;;
84864;SDS011;75122;41.650;25.368;2024-03-08T08:38:43;38.00;;;18.15;;
84864;SDS011;75122;41.650;25.368;2024-03-08T08:41:09;36.90;;;19.40;;
84864;SDS011;75122;41.650;25.368;2024-03-08T08:43:36;30.63;;;15.25;;
84864;SDS011;75122;41.650;25.368;2024-03-08T08:46:01;24.50;;;12.93;;
84864;SDS011;75122;41.650;25.368;2024-03-08T08:48:27;27.63;;;11.88;;
84864;SDS011;75122;41.650;25.368;2024-03-08T08:50:54;26.52;;;13.48;;
84864;SDS011;75122;41.650;25.368;2024-03-08T08:53:20;26.27;;;14.20;;
84864;SDS011;75122;41.650;25.368;2024-03-08T08:55:45;26.70;;;12.93;;
84864;SDS011;75122;41.650;25.368;2024-03-08T08:58:11;27.77;;;15.27;;
84864;SDS011;75122;41.650;25.368;2024-03-08T09:00:37;28.08;;;14.98;;
84864;SDS011;75122;41.650;25.368;2024-03-08T09:03:04;24.83;;;12.93;;
84864;SDS011;75122;41.650;25.368;2024-03-08T09:05:31;28.42;;;13.98;;
84864;SDS011;75122;41.650;25.368;2024-03-08T09:07:57;26.58;;;13.90;;
84864;SDS011;75122;41.650;25.368;2024-03-08T09:10:22;26.40;;;14.02;;
84864;SDS011;75122;41.650;25.368;2024-03-08T09:12:48;27.73;;;14.07;;
84864;SDS011;75122;41.650;25.368;2024-03-08T09:15:14;27.52;;;13.13;;
84864;SDS011;75122;41.650;25.368;2024-03-08T09:17:39;28.33;;;14.45;;
84864;SDS011;75122;41.650;25.368;2024-03-08T09:20:08;21.48;;;11.95;;
84864;SDS011;75122;41.650;25.368;2024-03-08T09:22:35;27.73;;;15.15;;
84864;SDS011;75122;41.650;25.368;2024-03-08T09:25:01;27.83;;;13.25;;
84864;SDS011;75122;41.650;25.368;2024-03-08T09:27:30;27.70;;;15.15;;
84864;SDS011;75122;41.650;25.368;2024-03-08T09:29:55;41.40;;;19.58;;
84864;SDS011;75122;41.650;25.368;2024-03-08T09:32:21;41.90;;;21.67;;
84864;SDS011;75122;41.650;25.368;2024-03-08T09:34:47;31.55;;;18.10;;
84864;SDS011;75122;41.650;25.368;2024-03-08T09:37:13;37.75;;;16.33;;
84864;SDS011;75122;41.650;25.368;2024-03-08T09:39:39;30.80;;;17.33;;
84864;SDS011;75122;41.650;25.368;2024-03-08T09:42:04;28.58;;;15.98;;
84864;SDS011;75122;41.650;25.368;2024-03-08T09:44:30;36.35;;;18.92;;
84864;SDS011;75122;41.650;25.368;2024-03-08T09:46:56;33.55;;;17.77;;
84864;SDS011;75122;41.650;25.368;2024-03-08T09:49:23;24.85;;;14.40;;
84864;SDS011;75122;41.650;25.368;2024-03-08T09:51:48;22.83;;;12.50;;
84864;SDS011;75122;41.650;25.368;2024-03-08T09:54:16;25.50;;;14.02;;
84864;SDS011;75122;41.650;25.368;2024-03-08T09:56:42;22.35;;;14.30;;
84864;SDS011;75122;41.650;25.368;2024-03-08T09:59:09;22.00;;;12.73;;
84864;SDS011;75122;41.650;25.368;2024-03-08T10:01:53;31.52;;;16.63;;
84864;SDS011;75122;41.650;25.368;2024-03-08T10:04:21;23.67;;;13.68;;
84864;SDS011;75122;41.650;25.368;2024-03-08T10:06:47;23.00;;;13.93;;
84864;SDS011;75122;41.650;25.368;2024-03-08T10:09:13;20.40;;;11.82;;
84864;SDS011;75122;41.650;25.368;2024-03-08T10:11:42;21.08;;;11.35;;
84864;SDS011;75122;41.650;25.368;2024-03-08T10:14:08;19.15;;;10.77;;
84864;SDS011;75122;41.650;25.368;2024-03-08T10:16:34;25.50;;;12.43;;
84864;SDS011;75122;41.650;25.368;2024-03-08T10:19:00;18.58;;;10.20;;
84864;SDS011;75122;41.650;25.368;2024-03-08T10:21:26;19.25;;;11.10;;
84864;SDS011;75122;41.650;25.368;2024-03-08T10:23:52;18.00;;;10.95;;
84864;SDS011;75122;41.650;25.368;2024-03-08T10:26:18;14.57;;;8.80;;
84864;SDS011;75122;41.650;25.368;2024-03-08T10:28:46;19.13;;;11.57;;
84864;SDS011;75122;41.650;25.368;2024-03-08T10:31:13;16.02;;;9.40;;
84864;SDS011;75122;41.650;25.368;2024-03-08T10:33:40;22.92;;;12.50;;
84864;SDS011;75122;41.650;25.368;2024-03-08T10:36:09;16.33;;;8.98;;
84864;SDS011;75122;41.650;25.368;2024-03-08T10:38:36;19.05;;;10.18;;
84864;SDS011;75122;41.650;25.368;2024-03-08T10:41:06;16.77;;;9.93;;
84864;SDS011;75122;41.650;25.368;2024-03-08T10:48:55;17.67;;;10.52;;
84864;SDS011;75122;41.650;25.368;2024-03-08T10:51:26;17.80;;;10.27;;
84864;SDS011;75122;41.650;25.368;2024-03-08T10:53:53;19.35;;;11.27;;
84864;SDS011;75122;41.650;25.368;2024-03-08T10:56:21;22.23;;;11.82;;
84864;SDS011;75122;41.650;25.368;2024-03-08T10:58:47;20.38;;;10.68;;
84864;SDS011;75122;41.650;25.368;2024-03-08T11:01:14;16.17;;;8.05;;
84864;SDS011;75122;41.650;25.368;2024-03-08T11:06:08;14.23;;;9.27;;
84864;SDS011;75122;41.650;25.368;2024-03-08T11:08:48;20.98;;;11.35;;
84864;SDS011;75122;41.650;25.368;2024-03-08T11:11:28;18.27;;;9.82;;
84864;SDS011;75122;41.650;25.368;2024-03-08T11:13:56;15.48;;;8.73;;
84864;SDS011;75122;41.650;25.368;2024-03-08T11:19:25;17.33;;;9.93;;
84864;SDS011;75122;41.650;25.368;2024-03-08T11:24:10;22.42;;;12.27;;
84864;SDS011;75122;41.650;25.368;2024-03-08T11:26:38;23.45;;;11.93;;
84864;SDS011;75122;41.650;25.368;2024-03-08T11:34:36;13.60;;;9.02;;
84864;SDS011;75122;41.650;25.368;2024-03-08T11:37:06;19.15;;;10.98;;
84864;SDS011;75122;41.650;25.368;2024-03-08T11:39:38;23.27;;;11.23;;
84864;SDS011;75122;41.650;25.368;2024-03-08T11:42:05;12.65;;;7.70;;
84864;SDS011;75122;41.650;25.368;2024-03-08T11:44:31;16.55;;;8.93;;
84864;SDS011;75122;41.650;25.368;2024-03-08T11:46:57;15.70;;;8.63;;
84864;SDS011;75122;41.650;25.368;2024-03-08T11:49:23;13.93;;;9.07;;
84864;SDS011;75122;41.650;25.368;2024-03-08T11:51:51;17.55;;;9.52;;
84864;SDS011;75122;41.650;25.368;2024-03-08T11:54:17;18.60;;;9.98;;
84864;SDS011;75122;41.650;25.368;2024-03-08T11:56:44;20.83;;;10.13;;
84864;SDS011;75122;41.650;25.368;2024-03-08T11:59:12;15.80;;;8.82;;
84864;SDS011;75122;41.650;25.368;2024-03-08T12:01:38;22.38;;;12.15;;
84864;SDS011;75122;41.650;25.368;2024-03-08T12:04:04;23.67;;;11.65;;
84864;SDS011;75122;41.650;25.368;2024-03-08T12:06:37;25.80;;;13.05;;
84864;SDS011;75122;41.650;25.368;2024-03-08T12:09:10;21.10;;;12.35;;
84864;SDS011;75122;41.650;25.368;2024-03-08T12:11:36;18.92;;;11.40;;
84864;SDS011;75122;41.650;25.368;2024-03-08T12:14:02;14.32;;;8.20;;
84864;SDS011;75122;41.650;25.368;2024-03-08T12:16:28;19.65;;;9.95;;
84864;SDS011;75122;41.650;25.368;2024-03-08T12:18:54;21.08;;;11.18;;
84864;SDS011;75122;41.650;25.368;2024-03-08T12:21:20;23.83;;;12.88;;
84864;SDS011;75122;41.650;25.368;2024-03-08T12:24:01;17.45;;;10.60;;
84864;SDS011;75122;41.650;25.368;2024-03-08T12:26:28;18.75;;;9.68;;
84864;SDS011;75122;41.650;25.368;2024-03-08T12:28:55;12.77;;;8.23;;
84864;SDS011;75122;41.650;25.368;2024-03-08T12:31:57;25.02;;;11.80;;
84864;SDS011;75122;41.650;25.368;2024-03-08T12:34:26;25.10;;;10.93;;
84864;SDS011;75122;41.650;25.368;2024-03-08T12:36:53;18.95;;;12.05;;
84864;SDS011;75122;41.650;25.368;2024-03-08T12:39:20;19.52;;;10.95;;
84864;SDS011;75122;41.650;25.368;2024-03-08T12:41:55;21.75;;;10.60;;
84864;SDS011;75122;41.650;25.368;2024-03-08T12:44:22;17.67;;;9.63;;
84864;SDS011;75122;41.650;25.368;2024-03-08T12:46:49;17.80;;;11.18;;
84864;SDS011;75122;41.650;25.368;2024-03-08T12:49:14;20.38;;;10.82;;
84864;SDS011;75122;41.650;25.368;2024-03-08T12:51:45;17.98;;;10.48;;
84864;SDS011;75122;41.650;25.368;2024-03-08T12:54:11;19.30;;;11.02;;
84864;SDS011;75122;41.650;25.368;2024-03-08T12:56:37;31.75;;;15.43;;
84864;SDS011;75122;41.650;25.368;2024-03-08T12:59:03;25.20;;;14.25;;
84864;SDS011;75122;41.650;25.368;2024-03-08T13:01:30;21.00;;;13.25;;
84864;SDS011;75122;41.650;25.368;2024-03-08T13:03:57;17.50;;;9.95;;
84864;SDS011;75122;41.650;25.368;2024-03-08T13:06:23;21.70;;;9.98;;
84864;SDS011;75122;41.650;25.368;2024-03-08T13:08:49;17.90;;;10.73;;
84864;SDS011;75122;41.650;25.368;2024-03-08T13:11:16;20.98;;;11.57;;
84864;SDS011;75122;41.650;25.368;2024-03-08T13:13:42;16.20;;;10.75;;
84864;SDS011;75122;41.650;25.368;2024-03-08T13:16:09;16.45;;;9.43;;
84864;SDS011;75122;41.650;25.368;2024-03-08T13:18:38;13.60;;;8.55;;
84864;SDS011;75122;41.650;25.368;2024-03-08T13:21:03;14.35;;;8.45;;
84864;SDS011;75122;41.650;25.368;2024-03-08T13:23:34;14.75;;;7.72;;
84864;SDS011;75122;41.650;25.368;2024-03-08T13:26:06;15.23;;;10.05;;
84864;SDS011;75122;41.650;25.368;2024-03-08T13:28:32;14.55;;;8.85;;
84864;SDS011;75122;41.650;25.368;2024-03-08T13:31:02;18.08;;;10.75;;
84864;SDS011;75122;41.650;25.368;2024-03-08T13:33:31;18.67;;;11.13;;
84864;SDS011;75122;41.650;25.368;2024-03-08T13:36:00;13.65;;;8.88;;
84864;SDS011;75122;41.650;25.368;2024-03-08T13:38:26;11.57;;;7.20;;
84864;SDS011;75122;41.650;25.368;2024-03-08T13:40:52;16.58;;;8.98;;
84864;SDS011;75122;41.650;25.368;2024-03-08T13:43:18;12.93;;;8.38;;
84864;SDS011;75122;41.650;25.368;2024-03-08T13:45:43;13.00;;;8.00;;
84864;SDS011;75122;41.650;25.368;2024-03-08T13:48:08;16.75;;;9.57;;
84864;SDS011;75122;41.650;25.368;2024-03-08T13:50:37;13.27;;;7.60;;
84864;SDS011;75122;41.650;25.368;2024-03-08T13:53:03;15.63;;;7.55;;
84864;SDS011;75122;41.650;25.368;2024-03-08T13:55:29;9.80;;;7.03;;
84864;SDS011;75122;41.650;25.368;2024-03-08T13:57:55;11.05;;;6.47;;
84864;SDS011;75122;41.650;25.368;2024-03-08T14:00:25;11.18;;;6.68;;
84864;SDS011;75122;41.650;25.368;2024-03-08T14:02:53;14.73;;;8.73;;
84864;SDS011;75122;41.650;25.368;2024-03-08T14:05:19;12.70;;;8.70;;
84864;SDS011;75122;41.650;25.368;2024-03-08T14:07:44;17.67;;;10.18;;
84864;SDS011;75122;41.650;25.368;2024-03-08T14:10:12;20.85;;;11.68;;
84864;SDS011;75122;41.650;25.368;2024-03-08T14:12:37;12.77;;;7.70;;
84864;SDS011;75122;41.650;25.368;2024-03-08T14:15:04;14.05;;;7.50;;
84864;SDS011;75122;41.650;25.368;2024-03-08T14:17:31;14.95;;;8.48;;
84864;SDS011;75122;41.650;25.368;2024-03-08T14:19:57;10.38;;;5.90;;
84864;SDS011;75122;41.650;25.368;2024-03-08T14:22:24;16.33;;;6.88;;
84864;SDS011;75122;41.650;25.368;2024-03-08T14:24:49;48.00;;;20.52;;
84864;SDS011;75122;41.650;25.368;2024-03-08T14:27:16;21.40;;;10.95;;